sensor_id;sensor_type;location;lat;lon;timestamp;temperature;humidity
666;DHT22;315;48.738;9.126;2023-04-25T00:01:17;8.90;99.90
666;DHT22;315;48.738;9.126;2023-04-25T00:03:42;8.90;99.90
666;DHT22;315;48.738;9.126;2023-04-25T00:06:08;9.00;99.90
666;DHT22;315;48.738;9.126;2023-04-25T00:08:33;8.90;99.90
666;DHT22;315;48.738;9.126;2023-04-25T00:11:00;8.90;99.90
666;DHT22;315;48.738;9.126;2023-04-25T00:13:26;8.90;99.90
666;DHT22;315;48.738;9.126;2023-04-25T00:15:52;8.90;99.90
666;DHT22;315;48.738;9.126;2023-04-25T00:18:22;8.80;99.90
666;DHT22;315;48.738;9.126;2023-04-25T00:20:47;8.80;99.90
666;DHT22;315;48.738;9.126;2023-04-25T00:23:17;8.80;99.90
666;DHT22;315;48.738;9.126;2023-04-25T00:25:45;8.80;99.90
666;DHT22;315;48.738;9.126;2023-04-25T00:28:12;8.90;99.90
666;DHT22;315;48.738;9.126;2023-04-25T00:30:38;8.80;99.90
666;DHT22;315;48.738;9.126;2023-04-25T00:33:04;8.80;99.90
666;DHT22;315;48.738;9.126;2023-04-25T00:35:29;8.80;99.90
666;DHT22;315;48.738;9.126;2023-04-25T00:37:55;8.90;99.90
666;DHT22;315;48.738;9.126;2023-04-25T00:40:20;8.90;99.90
666;DHT22;315;48.738;9.126;2023-04-25T00:42:47;8.80;99.90
666;DHT22;315;48.738;9.126;2023-04-25T00:45:14;8.80;99.90
666;DHT22;315;48.738;9.126;2023-04-25T00:47:42;8.70;99.90
666;DHT22;315;48.738;9.126;2023-04-25T00:50:09;8.70;99.90
666;DHT22;315;48.738;9.126;2023-04-25T00:52:35;8.70;99.90
666;DHT22;315;48.738;9.126;2023-04-25T00:55:01;8.70;99.90
666;DHT22;315;48.738;9.126;2023-04-25T00:57:27;8.70;99.90
666;DHT22;315;48.738;9.126;2023-04-25T00:59:55;8.70;99.90
666;DHT22;315;48.738;9.126;2023-04-25T01:02:20;8.70;99.90
666;DHT22;315;48.738;9.126;2023-04-25T01:04:47;8.70;99.90
666;DHT22;315;48.738;9.126;2023-04-25T01:07:13;8.70;99.90
666;DHT22;315;48.738;9.126;2023-04-25T01:09:40;8.70;99.90
666;DHT22;315;48.738;9.126;2023-04-25T01:12:06;8.80;99.90
666;DHT22;315;48.738;9.126;2023-04-25T01:14:32;8.80;99.90
666;DHT22;315;48.738;9.126;2023-04-25T01:16:58;8.80;99.90
666;DHT22;315;48.738;9.126;2023-04-25T01:19:24;8.80;99.90
666;DHT22;315;48.738;9.126;2023-04-25T01:21:50;8.70;99.90
666;DHT22;315;48.738;9.126;2023-04-25T01:24:16;8.60;99.90
666;DHT22;315;48.738;9.126;2023-04-25T01:26:43;8.60;99.90
666;DHT22;315;48.738;9.126;2023-04-25T01:29:17;8.60;99.90
666;DHT22;315;48.738;9.126;2023-04-25T01:31:44;8.60;99.90
666;DHT22;315;48.738;9.126;2023-04-25T01:34:10;8.60;99.90
666;DHT22;315;48.738;9.126;2023-04-25T01:36:36;8.60;99.90
666;DHT22;315;48.738;9.126;2023-04-25T01:39:02;8.60;99.90
666;DHT22;315;48.738;9.126;2023-04-25T01:41:27;8.60;99.90
666;DHT22;315;48.738;9.126;2023-04-25T01:43:53;8.60;99.90
666;DHT22;315;48.738;9.126;2023-04-25T01:46:19;8.60;99.90
666;DHT22;315;48.738;9.126;2023-04-25T01:48:45;8.60;99.90
666;DHT22;315;48.738;9.126;2023-04-25T01:51:11;8.60;99.90
666;DHT22;315;48.738;9.126;2023-04-25T01:53:37;8.60;99.90
666;DHT22;315;48.738;9.126;2023-04-25T01:56:03;8.50;99.90
666;DHT22;315;48.738;9.126;2023-04-25T01:58:29;8.50;99.90
666;DHT22;315;48.738;9.126;2023-04-25T02:00:54;8.50;99.90
666;DHT22;315;48.738;9.126;2023-04-25T02:03:20;8.40;99.90
666;DHT22;315;48.738;9.126;2023-04-25T02:05:45;8.30;99.90
666;DHT22;315;48.738;9.126;2023-04-25T02:08:11;8.40;99.90
666;DHT22;315;48.738;9.126;2023-04-25T02:10:36;8.30;99.90
666;DHT22;315;48.738;9.126;2023-04-25T02:13:03;8.30;99.90
666;DHT22;315;48.738;9.126;2023-04-25T02:15:30;8.30;99.90
666;DHT22;315;48.738;9.126;2023-04-25T02:17:56;8.30;99.90
666;DHT22;315;48.738;9.126;2023-04-25T02:20:22;8.30;99.90
666;DHT22;315;48.738;9.126;2023-04-25T02:22:47;8.30;99.90
666;DHT22;315;48.738;9.126;2023-04-25T02:25:13;8.30;99.90
666;DHT22;315;48.738;9.126;2023-04-25T02:27:38;8.30;99.90
666;DHT22;315;48.738;9.126;2023-04-25T02:30:05;8.30;99.90
666;DHT22;315;48.738;9.126;2023-04-25T02:32:32;8.30;99.90
666;DHT22;315;48.738;9.126;2023-04-25T02:34:57;8.20;99.90
666;DHT22;315;48.738;9.126;2023-04-25T02:37:32;8.20;99.90
666;DHT22;315;48.738;9.126;2023-04-25T02:39:58;8.30;99.90
666;DHT22;315;48.738;9.126;2023-04-25T02:42:23;8.30;99.90
666;DHT22;315;48.738;9.126;2023-04-25T02:44:49;8.30;99.90
666;DHT22;315;48.738;9.126;2023-04-25T02:47:14;8.30;99.90
666;DHT22;315;48.738;9.126;2023-04-25T02:49:40;8.30;99.90
666;DHT22;315;48.738;9.126;2023-04-25T02:52:05;8.30;99.90
666;DHT22;315;48.738;9.126;2023-04-25T02:54:31;8.30;99.90
666;DHT22;315;48.738;9.126;2023-04-25T02:56:57;8.20;99.90
666;DHT22;315;48.738;9.126;2023-04-25T02:59:22;8.20;99.90
666;DHT22;315;48.738;9.126;2023-04-25T03:01:48;8.10;99.90
666;DHT22;315;48.738;9.126;2023-04-25T03:04:13;8.00;99.90
666;DHT22;315;48.738;9.126;2023-04-25T03:06:39;8.00;99.90
666;DHT22;315;48.738;9.126;2023-04-25T03:09:05;8.00;99.90
666;DHT22;315;48.738;9.126;2023-04-25T03:11:30;7.90;99.90
666;DHT22;315;48.738;9.126;2023-04-25T03:13:56;7.90;99.90
666;DHT22;315;48.738;9.126;2023-04-25T03:16:22;7.90;99.90
666;DHT22;315;48.738;9.126;2023-04-25T03:18:47;7.90;99.90
666;DHT22;315;48.738;9.126;2023-04-25T03:21:14;7.90;99.90
666;DHT22;315;48.738;9.126;2023-04-25T03:23:40;7.90;99.90
666;DHT22;315;48.738;9.126;2023-04-25T03:26:05;7.90;99.90
666;DHT22;315;48.738;9.126;2023-04-25T03:28:31;8.00;99.90
666;DHT22;315;48.738;9.126;2023-04-25T03:30:56;8.00;99.90
666;DHT22;315;48.738;9.126;2023-04-25T03:33:22;8.00;99.90
666;DHT22;315;48.738;9.126;2023-04-25T03:35:47;7.90;99.90
666;DHT22;315;48.738;9.126;2023-04-25T03:38:13;7.90;99.90
666;DHT22;315;48.738;9.126;2023-04-25T03:40:38;7.90;99.90
666;DHT22;315;48.738;9.126;2023-04-25T03:43:04;7.90;99.90
666;DHT22;315;48.738;9.126;2023-04-25T03:45:30;7.90;99.90
666;DHT22;315;48.738;9.126;2023-04-25T03:47:55;7.90;99.90
666;DHT22;315;48.738;9.126;2023-04-25T03:50:21;7.90;99.90
666;DHT22;315;48.738;9.126;2023-04-25T03:52:46;7.90;99.90
666;DHT22;315;48.738;9.126;2023-04-25T03:55:12;7.90;99.90
666;DHT22;315;48.738;9.126;2023-04-25T03:57:37;7.90;99.90
666;DHT22;315;48.738;9.126;2023-04-25T04:00:04;7.90;99.90
666;DHT22;315;48.738;9.126;2023-04-25T04:02:29;7.90;99.90
666;DHT22;315;48.738;9.126;2023-04-25T04:04:55;7.90;99.90
666;DHT22;315;48.738;9.126;2023-04-25T04:07:22;7.80;99.90
666;DHT22;315;48.738;9.126;2023-04-25T04:09:47;7.80;99.90
666;DHT22;315;48.738;9.126;2023-04-25T04:12:13;7.80;99.90
666;DHT22;315;48.738;9.126;2023-04-25T04:14:38;7.80;99.90
666;DHT22;315;48.738;9.126;2023-04-25T04:17:04;7.70;99.90
666;DHT22;315;48.738;9.126;2023-04-25T04:19:29;7.70;99.90
666;DHT22;315;48.738;9.126;2023-04-25T04:21:55;7.70;99.90
666;DHT22;315;48.738;9.126;2023-04-25T04:24:20;7.70;99.90
666;DHT22;315;48.738;9.126;2023-04-25T04:26:46;7.60;99.90
666;DHT22;315;48.738;9.126;2023-04-25T04:29:11;7.70;99.90
666;DHT22;315;48.738;9.126;2023-04-25T04:31:37;7.70;99.90
666;DHT22;315;48.738;9.126;2023-04-25T04:34:03;7.70;99.90
666;DHT22;315;48.738;9.126;2023-04-25T04:36:29;7.80;99.90
666;DHT22;315;48.738;9.126;2023-04-25T04:38:54;7.80;99.90
666;DHT22;315;48.738;9.126;2023-04-25T04:41:21;7.70;99.90
666;DHT22;315;48.738;9.126;2023-04-25T04:43:47;7.70;99.90
666;DHT22;315;48.738;9.126;2023-04-25T04:46:13;7.60;99.90
666;DHT22;315;48.738;9.126;2023-04-25T04:48:38;7.70;99.90
666;DHT22;315;48.738;9.126;2023-04-25T04:51:05;7.70;99.90
666;DHT22;315;48.738;9.126;2023-04-25T04:53:31;7.80;99.90
666;DHT22;315;48.738;9.126;2023-04-25T04:55:57;7.90;99.90
666;DHT22;315;48.738;9.126;2023-04-25T04:58:23;8.00;99.90
666;DHT22;315;48.738;9.126;2023-04-25T05:00:49;8.10;99.90
666;DHT22;315;48.738;9.126;2023-04-25T05:03:14;8.10;99.90
666;DHT22;315;48.738;9.126;2023-04-25T05:05:40;8.20;99.90
666;DHT22;315;48.738;9.126;2023-04-25T05:08:06;8.20;99.90
666;DHT22;315;48.738;9.126;2023-04-25T05:10:32;8.30;99.90
666;DHT22;315;48.738;9.126;2023-04-25T05:12:57;8.40;99.90
666;DHT22;315;48.738;9.126;2023-04-25T05:15:23;8.50;99.90
666;DHT22;315;48.738;9.126;2023-04-25T05:17:48;8.60;99.90
666;DHT22;315;48.738;9.126;2023-04-25T05:20:14;8.60;99.90
666;DHT22;315;48.738;9.126;2023-04-25T05:22:40;8.60;99.90
666;DHT22;315;48.738;9.126;2023-04-25T05:25:07;8.60;99.90
666;DHT22;315;48.738;9.126;2023-04-25T05:27:33;8.70;99.90
666;DHT22;315;48.738;9.126;2023-04-25T05:29:59;8.70;99.90
666;DHT22;315;48.738;9.126;2023-04-25T05:32:25;8.60;99.90
666;DHT22;315;48.738;9.126;2023-04-25T05:34:51;8.60;99.90
666;DHT22;315;48.738;9.126;2023-04-25T05:37:17;8.60;99.90
666;DHT22;315;48.738;9.126;2023-04-25T05:39:42;8.60;99.90
666;DHT22;315;48.738;9.126;2023-04-25T05:42:08;8.60;99.90
666;DHT22;315;48.738;9.126;2023-04-25T05:44:33;8.70;99.90
666;DHT22;315;48.738;9.126;2023-04-25T05:46:59;8.80;99.90
666;DHT22;315;48.738;9.126;2023-04-25T05:49:24;8.90;99.90
666;DHT22;315;48.738;9.126;2023-04-25T05:51:50;9.10;99.90
666;DHT22;315;48.738;9.126;2023-04-25T05:54:15;9.20;99.90
666;DHT22;315;48.738;9.126;2023-04-25T05:56:41;9.20;99.90
666;DHT22;315;48.738;9.126;2023-04-25T05:59:06;9.20;99.90
666;DHT22;315;48.738;9.126;2023-04-25T06:01:32;9.10;99.90
666;DHT22;315;48.738;9.126;2023-04-25T06:03:57;9.00;99.90
666;DHT22;315;48.738;9.126;2023-04-25T06:06:23;8.90;99.90
666;DHT22;315;48.738;9.126;2023-04-25T06:08:49;8.90;99.90
666;DHT22;315;48.738;9.126;2023-04-25T06:11:14;8.90;99.90
666;DHT22;315;48.738;9.126;2023-04-25T06:13:40;8.90;99.90
666;DHT22;315;48.738;9.126;2023-04-25T06:16:05;8.90;99.90
666;DHT22;315;48.738;9.126;2023-04-25T06:18:31;8.80;99.90
666;DHT22;315;48.738;9.126;2023-04-25T06:20:56;8.80;99.90
666;DHT22;315;48.738;9.126;2023-04-25T06:23:22;8.90;99.90
666;DHT22;315;48.738;9.126;2023-04-25T06:25:48;8.90;99.90
666;DHT22;315;48.738;9.126;2023-04-25T06:28:13;8.80;99.90
666;DHT22;315;48.738;9.126;2023-04-25T06:30:39;8.70;99.90
666;DHT22;315;48.738;9.126;2023-04-25T06:33:04;8.70;99.90
666;DHT22;315;48.738;9.126;2023-04-25T06:35:30;8.60;99.90
666;DHT22;315;48.738;9.126;2023-04-25T06:37:55;8.50;99.90
666;DHT22;315;48.738;9.126;2023-04-25T06:40:21;8.50;99.90
666;DHT22;315;48.738;9.126;2023-04-25T06:42:46;8.50;99.90
666;DHT22;315;48.738;9.126;2023-04-25T06:45:12;8.50;99.90
666;DHT22;315;48.738;9.126;2023-04-25T06:47:37;8.50;99.90
666;DHT22;315;48.738;9.126;2023-04-25T06:50:03;8.40;99.90
666;DHT22;315;48.738;9.126;2023-04-25T06:52:29;8.50;99.90
666;DHT22;315;48.738;9.126;2023-04-25T06:54:55;8.40;99.90
666;DHT22;315;48.738;9.126;2023-04-25T06:57:20;8.40;99.90
666;DHT22;315;48.738;9.126;2023-04-25T06:59:46;8.40;99.90
666;DHT22;315;48.738;9.126;2023-04-25T07:02:11;8.40;99.90
666;DHT22;315;48.738;9.126;2023-04-25T07:04:37;8.50;99.90
666;DHT22;315;48.738;9.126;2023-04-25T07:07:02;8.50;99.90
666;DHT22;315;48.738;9.126;2023-04-25T07:09:29;8.50;99.90
666;DHT22;315;48.738;9.126;2023-04-25T07:11:54;8.60;99.90
666;DHT22;315;48.738;9.126;2023-04-25T07:14:20;8.50;99.90
666;DHT22;315;48.738;9.126;2023-04-25T07:16:45;8.60;99.90
666;DHT22;315;48.738;9.126;2023-04-25T07:19:11;8.50;99.90
666;DHT22;315;48.738;9.126;2023-04-25T07:21:37;8.50;99.90
666;DHT22;315;48.738;9.126;2023-04-25T07:24:02;8.50;99.90
666;DHT22;315;48.738;9.126;2023-04-25T07:26:28;8.40;99.90
666;DHT22;315;48.738;9.126;2023-04-25T07:28:53;8.40;99.90
666;DHT22;315;48.738;9.126;2023-04-25T07:31:20;8.40;99.90
666;DHT22;315;48.738;9.126;2023-04-25T07:33:45;8.40;99.90
666;DHT22;315;48.738;9.126;2023-04-25T07:36:12;8.40;99.90
666;DHT22;315;48.738;9.126;2023-04-25T07:38:38;8.40;99.90
666;DHT22;315;48.738;9.126;2023-04-25T07:41:04;8.40;99.90
666;DHT22;315;48.738;9.126;2023-04-25T07:43:29;8.40;99.90
666;DHT22;315;48.738;9.126;2023-04-25T07:45:56;8.40;99.90
666;DHT22;315;48.738;9.126;2023-04-25T07:48:22;8.40;99.90
666;DHT22;315;48.738;9.126;2023-04-25T07:50:47;8.30;99.90
666;DHT22;315;48.738;9.126;2023-04-25T07:53:13;8.30;99.90
666;DHT22;315;48.738;9.126;2023-04-25T07:55:39;8.30;99.90
666;DHT22;315;48.738;9.126;2023-04-25T07:58:08;8.30;99.90
666;DHT22;315;48.738;9.126;2023-04-25T08:00:35;8.40;99.90
666;DHT22;315;48.738;9.126;2023-04-25T08:03:00;8.30;99.90
666;DHT22;315;48.738;9.126;2023-04-25T08:05:26;8.30;99.90
666;DHT22;315;48.738;9.126;2023-04-25T08:07:51;8.40;99.90
666;DHT22;315;48.738;9.126;2023-04-25T08:10:17;8.50;99.90
666;DHT22;315;48.738;9.126;2023-04-25T08:12:43;8.50;99.90
666;DHT22;315;48.738;9.126;2023-04-25T08:15:09;8.50;99.90
666;DHT22;315;48.738;9.126;2023-04-25T08:17:34;8.60;99.90
666;DHT22;315;48.738;9.126;2023-04-25T08:20:00;8.50;99.90
666;DHT22;315;48.738;9.126;2023-04-25T08:22:25;8.60;99.90
666;DHT22;315;48.738;9.126;2023-04-25T08:24:51;8.60;99.90
666;DHT22;315;48.738;9.126;2023-04-25T08:27:18;8.60;99.90
666;DHT22;315;48.738;9.126;2023-04-25T08:29:43;8.80;99.90
666;DHT22;315;48.738;9.126;2023-04-25T08:32:09;8.80;99.90
666;DHT22;315;48.738;9.126;2023-04-25T08:34:34;8.70;99.90
666;DHT22;315;48.738;9.126;2023-04-25T08:37:00;8.70;99.90
666;DHT22;315;48.738;9.126;2023-04-25T08:39:25;8.70;99.90
666;DHT22;315;48.738;9.126;2023-04-25T08:41:51;8.60;99.90
666;DHT22;315;48.738;9.126;2023-04-25T08:44:19;8.60;99.90
666;DHT22;315;48.738;9.126;2023-04-25T08:46:47;8.60;99.90
666;DHT22;315;48.738;9.126;2023-04-25T08:49:17;8.60;99.90
666;DHT22;315;48.738;9.126;2023-04-25T08:51:46;8.60;99.90
666;DHT22;315;48.738;9.126;2023-04-25T08:54:13;8.50;99.90
666;DHT22;315;48.738;9.126;2023-04-25T08:56:41;8.50;99.90
666;DHT22;315;48.738;9.126;2023-04-25T08:59:09;8.50;99.90
666;DHT22;315;48.738;9.126;2023-04-25T09:01:35;8.50;99.90
666;DHT22;315;48.738;9.126;2023-04-25T09:04:03;8.50;99.90
666;DHT22;315;48.738;9.126;2023-04-25T09:06:29;8.60;99.90
666;DHT22;315;48.738;9.126;2023-04-25T09:09:04;8.60;99.90
666;DHT22;315;48.738;9.126;2023-04-25T09:11:31;8.50;99.90
666;DHT22;315;48.738;9.126;2023-04-25T09:19:34;8.40;99.90
666;DHT22;315;48.738;9.126;2023-04-25T09:22:02;8.30;99.90
666;DHT22;315;48.738;9.126;2023-04-25T09:24:38;8.20;99.90
666;DHT22;315;48.738;9.126;2023-04-25T09:27:08;8.20;99.90
666;DHT22;315;48.738;9.126;2023-04-25T09:29:37;8.20;99.90
666;DHT22;315;48.738;9.126;2023-04-25T09:32:19;8.30;99.90
666;DHT22;315;48.738;9.126;2023-04-25T09:34:50;8.20;99.90
666;DHT22;315;48.738;9.126;2023-04-25T09:37:27;8.20;99.90
666;DHT22;315;48.738;9.126;2023-04-25T09:39:58;8.30;99.90
666;DHT22;315;48.738;9.126;2023-04-25T09:42:26;8.30;99.90
666;DHT22;315;48.738;9.126;2023-04-25T09:44:53;8.20;99.90
666;DHT22;315;48.738;9.126;2023-04-25T09:47:19;8.20;99.90
666;DHT22;315;48.738;9.126;2023-04-25T09:49:48;8.20;99.90
666;DHT22;315;48.738;9.126;2023-04-25T09:52:16;8.10;99.90
666;DHT22;315;48.738;9.126;2023-04-25T09:54:42;8.00;99.90
666;DHT22;315;48.738;9.126;2023-04-25T09:57:13;8.00;99.90
666;DHT22;315;48.738;9.126;2023-04-25T09:59:42;7.90;99.90
666;DHT22;315;48.738;9.126;2023-04-25T10:02:08;7.90;99.90
666;DHT22;315;48.738;9.126;2023-04-25T10:04:35;7.80;99.90
666;DHT22;315;48.738;9.126;2023-04-25T10:07:03;7.80;99.90
666;DHT22;315;48.738;9.126;2023-04-25T10:09:31;7.80;99.90
666;DHT22;315;48.738;9.126;2023-04-25T10:11:59;7.90;99.90
666;DHT22;315;48.738;9.126;2023-04-25T10:14:26;8.00;99.90
666;DHT22;315;48.738;9.126;2023-04-25T10:16:53;8.10;99.90
666;DHT22;315;48.738;9.126;2023-04-25T10:19:22;8.30;99.90
666;DHT22;315;48.738;9.126;2023-04-25T10:22:03;8.30;99.90
666;DHT22;315;48.738;9.126;2023-04-25T10:24:30;8.40;99.90
666;DHT22;315;48.738;9.126;2023-04-25T10:26:56;8.30;99.90
666;DHT22;315;48.738;9.126;2023-04-25T10:29:26;8.30;99.90
666;DHT22;315;48.738;9.126;2023-04-25T10:31:52;8.40;99.90
666;DHT22;315;48.738;9.126;2023-04-25T10:34:18;8.60;99.90
666;DHT22;315;48.738;9.126;2023-04-25T10:36:50;8.80;99.90
666;DHT22;315;48.738;9.126;2023-04-25T10:39:23;9.40;99.90
666;DHT22;315;48.738;9.126;2023-04-25T10:41:57;9.20;99.90
666;DHT22;315;48.738;9.126;2023-04-25T10:44:26;8.90;99.90
666;DHT22;315;48.738;9.126;2023-04-25T10:46:52;8.70;99.90
666;DHT22;315;48.738;9.126;2023-04-25T10:54:48;8.50;99.90
666;DHT22;315;48.738;9.126;2023-04-25T10:57:29;8.50;99.90
666;DHT22;315;48.738;9.126;2023-04-25T10:59:59;8.50;99.90
666;DHT22;315;48.738;9.126;2023-04-25T11:02:28;8.50;99.90
666;DHT22;315;48.738;9.126;2023-04-25T11:04:54;8.50;99.90
666;DHT22;315;48.738;9.126;2023-04-25T11:07:29;8.50;99.90
666;DHT22;315;48.738;9.126;2023-04-25T11:10:01;8.10;99.90
666;DHT22;315;48.738;9.126;2023-04-25T11:12:27;7.90;99.90
666;DHT22;315;48.738;9.126;2023-04-25T11:15:02;8.00;99.90
666;DHT22;315;48.738;9.126;2023-04-25T11:17:28;8.00;99.90
666;DHT22;315;48.738;9.126;2023-04-25T11:19:54;8.10;99.90
666;DHT22;315;48.738;9.126;2023-04-25T11:22:22;8.10;99.90
666;DHT22;315;48.738;9.126;2023-04-25T11:24:47;8.10;99.90
666;DHT22;315;48.738;9.126;2023-04-25T11:27:13;8.20;99.90
666;DHT22;315;48.738;9.126;2023-04-25T11:29:38;8.20;99.90
666;DHT22;315;48.738;9.126;2023-04-25T11:32:04;8.30;99.90
666;DHT22;315;48.738;9.126;2023-04-25T11:34:31;8.40;99.90
666;DHT22;315;48.738;9.126;2023-04-25T11:36:58;8.50;99.90
666;DHT22;315;48.738;9.126;2023-04-25T11:39:25;8.70;99.90
666;DHT22;315;48.738;9.126;2023-04-25T11:41:52;8.90;99.90
666;DHT22;315;48.738;9.126;2023-04-25T11:44:18;9.10;99.90
666;DHT22;315;48.738;9.126;2023-04-25T11:46:44;9.20;99.90
666;DHT22;315;48.738;9.126;2023-04-25T11:49:09;9.30;99.90
666;DHT22;315;48.738;9.126;2023-04-25T11:51:46;9.50;99.90
666;DHT22;315;48.738;9.126;2023-04-25T11:54:12;9.80;99.90
666;DHT22;315;48.738;9.126;2023-04-25T11:56:40;9.80;99.90
666;DHT22;315;48.738;9.126;2023-04-25T11:59:06;9.90;99.90
666;DHT22;315;48.738;9.126;2023-04-25T12:01:37;9.90;99.90
666;DHT22;315;48.738;9.126;2023-04-25T12:04:14;9.80;99.90
666;DHT22;315;48.738;9.126;2023-04-25T12:06:41;9.90;99.90
666;DHT22;315;48.738;9.126;2023-04-25T12:09:10;10.00;99.90
666;DHT22;315;48.738;9.126;2023-04-25T12:11:46;9.70;99.90
666;DHT22;315;48.738;9.126;2023-04-25T12:14:21;9.60;99.90
666;DHT22;315;48.738;9.126;2023-04-25T12:16:48;9.70;99.90
666;DHT22;315;48.738;9.126;2023-04-25T12:19:15;9.80;99.90
666;DHT22;315;48.738;9.126;2023-04-25T12:21:42;9.50;99.90
666;DHT22;315;48.738;9.126;2023-04-25T12:29:20;9.50;99.90
666;DHT22;315;48.738;9.126;2023-04-25T12:31:46;9.60;99.90
666;DHT22;315;48.738;9.126;2023-04-25T12:34:12;9.80;99.90
666;DHT22;315;48.738;9.126;2023-04-25T12:36:37;9.90;99.90
666;DHT22;315;48.738;9.126;2023-04-25T12:39:03;10.00;99.90
666;DHT22;315;48.738;9.126;2023-04-25T12:41:30;10.10;99.90
666;DHT22;315;48.738;9.126;2023-04-25T12:43:55;10.20;99.90
666;DHT22;315;48.738;9.126;2023-04-25T12:46:21;10.30;99.90
666;DHT22;315;48.738;9.126;2023-04-25T12:48:48;10.30;99.90
666;DHT22;315;48.738;9.126;2023-04-25T12:51:13;10.20;99.90
666;DHT22;315;48.738;9.126;2023-04-25T12:53:39;10.20;99.90
666;DHT22;315;48.738;9.126;2023-04-25T12:56:09;10.30;99.90
666;DHT22;315;48.738;9.126;2023-04-25T12:58:35;10.10;99.90
666;DHT22;315;48.738;9.126;2023-04-25T13:01:00;10.20;99.90
666;DHT22;315;48.738;9.126;2023-04-25T13:03:26;10.30;99.90
666;DHT22;315;48.738;9.126;2023-04-25T13:05:52;10.30;99.90
666;DHT22;315;48.738;9.126;2023-04-25T13:08:18;10.60;99.90
666;DHT22;315;48.738;9.126;2023-04-25T13:10:44;11.00;99.90
666;DHT22;315;48.738;9.126;2023-04-25T13:13:09;11.10;99.90
666;DHT22;315;48.738;9.126;2023-04-25T13:15:35;11.30;99.90
666;DHT22;315;48.738;9.126;2023-04-25T13:18:02;11.60;99.90
666;DHT22;315;48.738;9.126;2023-04-25T13:20:28;12.00;99.90
666;DHT22;315;48.738;9.126;2023-04-25T13:22:53;12.20;99.90
666;DHT22;315;48.738;9.126;2023-04-25T13:25:19;12.10;99.90
666;DHT22;315;48.738;9.126;2023-04-25T13:27:44;12.80;99.90
666;DHT22;315;48.738;9.126;2023-04-25T13:30:10;13.80;99.90
666;DHT22;315;48.738;9.126;2023-04-25T13:32:36;14.80;99.90
666;DHT22;315;48.738;9.126;2023-04-25T13:35:04;14.70;99.90
666;DHT22;315;48.738;9.126;2023-04-25T13:37:30;14.50;99.90
666;DHT22;315;48.738;9.126;2023-04-25T13:39:58;14.70;99.90
666;DHT22;315;48.738;9.126;2023-04-25T13:42:24;14.90;99.90
666;DHT22;315;48.738;9.126;2023-04-25T13:44:50;14.10;99.90
666;DHT22;315;48.738;9.126;2023-04-25T13:47:15;14.00;99.90
666;DHT22;315;48.738;9.126;2023-04-25T13:49:41;13.30;99.90
666;DHT22;315;48.738;9.126;2023-04-25T13:52:06;12.60;99.90
666;DHT22;315;48.738;9.126;2023-04-25T13:54:33;12.20;99.90
666;DHT22;315;48.738;9.126;2023-04-25T13:56:58;12.00;99.90
666;DHT22;315;48.738;9.126;2023-04-25T13:59:24;12.10;99.90
666;DHT22;315;48.738;9.126;2023-04-25T14:01:51;11.80;99.90
666;DHT22;315;48.738;9.126;2023-04-25T14:04:16;11.80;99.90
666;DHT22;315;48.738;9.126;2023-04-25T14:06:42;11.60;99.90
666;DHT22;315;48.738;9.126;2023-04-25T14:09:08;11.90;99.90
666;DHT22;315;48.738;9.126;2023-04-25T14:11:36;12.20;99.90
666;DHT22;315;48.738;9.126;2023-04-25T14:14:02;12.40;99.90
666;DHT22;315;48.738;9.126;2023-04-25T14:16:28;12.30;99.90
666;DHT22;315;48.738;9.126;2023-04-25T14:18:53;13.00;99.90
666;DHT22;315;48.738;9.126;2023-04-25T14:21:20;13.00;99.90
666;DHT22;315;48.738;9.126;2023-04-25T14:23:46;12.90;99.90
666;DHT22;315;48.738;9.126;2023-04-25T14:26:12;12.80;99.90
666;DHT22;315;48.738;9.126;2023-04-25T14:28:38;12.70;99.90
666;DHT22;315;48.738;9.126;2023-04-25T14:31:04;12.70;99.90
666;DHT22;315;48.738;9.126;2023-04-25T14:33:29;12.60;99.90
666;DHT22;315;48.738;9.126;2023-04-25T14:35:56;12.80;99.90
666;DHT22;315;48.738;9.126;2023-04-25T14:38:21;12.60;99.90
666;DHT22;315;48.738;9.126;2023-04-25T14:40:49;12.70;99.90
666;DHT22;315;48.738;9.126;2023-04-25T14:43:14;12.80;99.90
666;DHT22;315;48.738;9.126;2023-04-25T14:45:40;12.90;99.90
666;DHT22;315;48.738;9.126;2023-04-25T14:48:06;13.00;99.90
666;DHT22;315;48.738;9.126;2023-04-25T14:50:32;13.10;99.90
666;DHT22;315;48.738;9.126;2023-04-25T14:52:58;13.10;99.90
666;DHT22;315;48.738;9.126;2023-04-25T14:55:28;13.00;99.90
666;DHT22;315;48.738;9.126;2023-04-25T14:57:54;12.80;99.90
666;DHT22;315;48.738;9.126;2023-04-25T15:00:20;12.50;99.90
666;DHT22;315;48.738;9.126;2023-04-25T15:02:48;12.90;99.90
666;DHT22;315;48.738;9.126;2023-04-25T15:05:13;12.90;99.90
666;DHT22;315;48.738;9.126;2023-04-25T15:07:39;12.70;99.90
666;DHT22;315;48.738;9.126;2023-04-25T15:10:08;12.70;99.90
666;DHT22;315;48.738;9.126;2023-04-25T15:12:39;12.60;99.90
666;DHT22;315;48.738;9.126;2023-04-25T15:15:06;12.60;99.90
666;DHT22;315;48.738;9.126;2023-04-25T15:17:45;12.40;99.90
666;DHT22;315;48.738;9.126;2023-04-25T15:20:13;12.50;99.90
666;DHT22;315;48.738;9.126;2023-04-25T15:22:40;12.40;99.90
666;DHT22;315;48.738;9.126;2023-04-25T15:25:06;12.30;99.90
666;DHT22;315;48.738;9.126;2023-04-25T15:27:33;12.20;99.90
666;DHT22;315;48.738;9.126;2023-04-25T15:29:59;12.20;99.90
666;DHT22;315;48.738;9.126;2023-04-25T15:32:25;12.30;99.90
666;DHT22;315;48.738;9.126;2023-04-25T15:34:51;12.40;99.90
666;DHT22;315;48.738;9.126;2023-04-25T15:37:16;12.60;99.90
666;DHT22;315;48.738;9.126;2023-04-25T15:39:44;12.60;99.90
666;DHT22;315;48.738;9.126;2023-04-25T15:42:09;12.20;99.90
666;DHT22;315;48.738;9.126;2023-04-25T15:44:35;12.00;99.90
666;DHT22;315;48.738;9.126;2023-04-25T15:47:00;11.80;99.90
666;DHT22;315;48.738;9.126;2023-04-25T15:49:26;11.60;99.90
666;DHT22;315;48.738;9.126;2023-04-25T15:51:52;11.60;99.90
666;DHT22;315;48.738;9.126;2023-04-25T15:54:18;11.70;99.90
666;DHT22;315;48.738;9.126;2023-04-25T15:56:43;11.70;99.90
666;DHT22;315;48.738;9.126;2023-04-25T15:59:10;11.90;99.90
666;DHT22;315;48.738;9.126;2023-04-25T16:01:35;12.00;99.90
666;DHT22;315;48.738;9.126;2023-04-25T16:04:02;11.90;99.90
666;DHT22;315;48.738;9.126;2023-04-25T16:06:28;12.10;99.90
666;DHT22;315;48.738;9.126;2023-04-25T16:08:54;12.20;99.90
666;DHT22;315;48.738;9.126;2023-04-25T16:11:20;12.10;99.90
666;DHT22;315;48.738;9.126;2023-04-25T16:13:45;12.00;99.90
666;DHT22;315;48.738;9.126;2023-04-25T16:16:11;11.90;99.90
666;DHT22;315;48.738;9.126;2023-04-25T16:18:37;11.70;99.90
666;DHT22;315;48.738;9.126;2023-04-25T16:21:02;11.70;99.90
666;DHT22;315;48.738;9.126;2023-04-25T16:23:28;11.70;99.90
666;DHT22;315;48.738;9.126;2023-04-25T16:25:54;11.70;99.90
666;DHT22;315;48.738;9.126;2023-04-25T16:28:20;11.60;99.90
666;DHT22;315;48.738;9.126;2023-04-25T16:30:45;11.50;99.90
666;DHT22;315;48.738;9.126;2023-04-25T16:33:11;11.30;99.90
666;DHT22;315;48.738;9.126;2023-04-25T16:35:37;11.40;99.90
666;DHT22;315;48.738;9.126;2023-04-25T16:38:02;11.50;99.90
666;DHT22;315;48.738;9.126;2023-04-25T16:40:29;11.60;99.90
666;DHT22;315;48.738;9.126;2023-04-25T16:42:54;11.60;99.90
666;DHT22;315;48.738;9.126;2023-04-25T16:45:20;11.70;99.90
666;DHT22;315;48.738;9.126;2023-04-25T16:47:46;11.70;99.90
666;DHT22;315;48.738;9.126;2023-04-25T16:50:15;11.80;99.90
666;DHT22;315;48.738;9.126;2023-04-25T16:52:41;11.70;99.90
666;DHT22;315;48.738;9.126;2023-04-25T16:55:07;11.70;99.90
666;DHT22;315;48.738;9.126;2023-04-25T16:57:34;11.70;99.90